Time;durP1;ratioP1;P1;durP2;ratioP2;P2;SDS_P1;SDS_P2;PMS_P1;PMS_P2;Temp;Humidity;BMP_temperature;BMP_pressure;BME280_temperature;BME280_humidity;BME280_pressure;Samples;Min_cycle;Max_cycle;Signal;HPM_P1;HPM_P2
2021/07/17 00:01:52;;;;;;;19.52;12.10;;;18.40;99.90;;;;;;5031792;28;20419;-69
2021/07/17 00:04:21;;;;;;;14.13;11.63;;;18.30;99.90;;;;;;5046495;28;20049;-68
2021/07/17 00:06:49;;;;;;;15.05;11.57;;;18.30;99.90;;;;;;5058017;28;20059;-68
2021/07/17 00:09:16;;;;;;;14.18;11.48;;;18.20;99.90;;;;;;5064420;28;20040;-68
2021/07/17 00:11:44;;;;;;;13.82;11.68;;;18.20;99.90;;;;;;5041612;28;20080;-68
2021/07/17 00:14:12;;;;;;;16.10;12.38;;;18.20;99.90;;;;;;5060931;28;20047;-68
2021/07/17 00:16:39;;;;;;;23.95;14.95;;;18.20;99.90;;;;;;5068241;28;20558;-68
2021/07/17 00:19:07;;;;;;;18.13;11.50;;;18.20;99.90;;;;;;5068393;28;20041;-69
2021/07/17 00:21:34;;;;;;;16.85;11.82;;;18.20;99.90;;;;;;5049630;28;20107;-68
2021/07/17 00:24:02;;;;;;;15.60;11.55;;;18.10;99.90;;;;;;5044264;28;20043;-68
2021/07/17 00:26:29;;;;;;;14.98;12.10;;;18.10;99.90;;;;;;5040300;28;20283;-68
2021/07/17 00:29:06;;;;;;;17.17;11.70;;;18.00;99.90;;;;;;5059507;28;20045;-68
2021/07/17 00:31:34;;;;;;;13.57;11.40;;;18.00;99.90;;;;;;5058697;28;20577;-68
2021/07/17 00:34:02;;;;;;;14.02;11.07;;;18.00;99.90;;;;;;5062870;28;21093;-68
2021/07/17 00:36:30;;;;;;;13.18;11.13;;;18.00;99.90;;;;;;5044478;28;20140;-68
2021/07/17 00:38:57;;;;;;;14.52;11.60;;;18.00;99.90;;;;;;5043838;28;20530;-68
2021/07/17 00:41:24;;;;;;;16.30;11.07;;;18.00;99.90;;;;;;5046048;28;20496;-68
2021/07/17 00:43:51;;;;;;;15.93;11.55;;;17.90;99.90;;;;;;5048800;28;20044;-68
2021/07/17 00:46:19;;;;;;;15.93;11.57;;;17.90;99.90;;;;;;5061146;28;20044;-68
2021/07/17 00:48:46;;;;;;;15.13;11.20;;;17.90;99.90;;;;;;5050897;28;20033;-68
2021/07/17 00:51:15;;;;;;;14.35;11.35;;;17.90;99.90;;;;;;5035306;28;20065;-68
2021/07/17 00:53:43;;;;;;;13.70;11.40;;;17.90;99.90;;;;;;5054907;28;20098;-68
2021/07/17 00:56:11;;;;;;;14.15;10.88;;;17.90;99.90;;;;;;5054893;28;20131;-68
2021/07/17 00:58:41;;;;;;;14.73;11.75;;;17.90;99.90;;;;;;5041589;28;20051;-68
2021/07/17 01:01:09;;;;;;;16.10;11.45;;;17.80;99.90;;;;;;5053035;28;20485;-68
2021/07/17 01:03:37;;;;;;;14.88;11.10;;;17.80;99.90;;;;;;5048839;28;20103;-68
2021/07/17 01:06:05;;;;;;;13.23;11.60;;;17.80;99.90;;;;;;5055290;28;20041;-69
2021/07/17 01:08:33;;;;;;;16.83;12.02;;;17.80;99.90;;;;;;5036215;28;20583;-68
2021/07/17 01:11:00;;;;;;;14.95;11.38;;;17.80;99.90;;;;;;5064420;28;20044;-68
2021/07/17 01:13:27;;;;;;;15.13;11.30;;;17.80;99.90;;;;;;5058279;28;20045;-68
2021/07/17 01:15:57;;;;;;;15.13;12.13;;;17.80;99.90;;;;;;5061996;28;20101;-68
2021/07/17 01:18:36;;;;;;;16.02;12.13;;;17.80;99.90;;;;;;5047198;28;20139;-68
2021/07/17 01:21:07;;;;;;;16.55;11.90;;;17.80;99.90;;;;;;5036343;28;20120;-68
2021/07/17 01:23:36;;;;;;;16.38;12.25;;;17.80;99.90;;;;;;5038629;28;20376;-68
2021/07/17 01:26:03;;;;;;;17.00;11.98;;;17.80;99.90;;;;;;5046679;28;20073;-68
2021/07/17 01:28:30;;;;;;;15.45;11.75;;;17.80;99.90;;;;;;5048790;28;20072;-68
2021/07/17 01:30:58;;;;;;;14.73;11.30;;;17.80;99.90;;;;;;5052783;28;20048;-68
2021/07/17 01:33:25;;;;;;;16.33;12.63;;;17.80;99.90;;;;;;5050081;28;20052;-68
2021/07/17 01:35:52;;;;;;;19.17;12.27;;;17.80;99.90;;;;;;5049508;28;20052;-68
2021/07/17 01:38:20;;;;;;;22.73;13.63;;;17.80;99.90;;;;;;5036941;28;20049;-68
2021/07/17 01:40:51;;;;;;;17.98;12.52;;;17.80;99.90;;;;;;5013553;28;20049;-68
2021/07/17 01:43:19;;;;;;;17.65;12.68;;;17.70;99.90;;;;;;5037525;28;20092;-68
2021/07/17 01:45:58;;;;;;;17.48;12.45;;;17.70;99.90;;;;;;5041796;28;20046;-68
2021/07/17 01:48:26;;;;;;;19.00;13.30;;;17.70;99.90;;;;;;5049897;28;20072;-68
2021/07/17 01:50:54;;;;;;;16.45;13.07;;;17.70;99.90;;;;;;5042794;28;20128;-68
2021/07/17 01:53:23;;;;;;;18.77;12.65;;;17.60;99.90;;;;;;5055240;28;20052;-68
2021/07/17 01:55:50;;;;;;;15.80;12.77;;;17.60;99.90;;;;;;5051350;28;20140;-68
2021/07/17 01:58:18;;;;;;;16.98;12.65;;;17.50;99.90;;;;;;5051914;28;20049;-68
2021/07/17 02:00:46;;;;;;;21.13;14.55;;;17.50;99.90;;;;;;5065056;28;20404;-68
2021/07/17 02:03:13;;;;;;;20.05;14.57;;;17.40;99.90;;;;;;5059982;28;20041;-68
2021/07/17 02:05:41;;;;;;;17.98;13.73;;;17.40;99.90;;;;;;5063754;28;20064;-67
2021/07/17 02:08:12;;;;;;;17.33;13.63;;;17.30;99.90;;;;;;5041121;28;20143;-68
2021/07/17 02:10:39;;;;;;;19.85;14.20;;;17.30;99.90;;;;;;5043673;28;20060;-68
2021/07/17 02:13:15;;;;;;;22.17;15.32;;;17.30;99.90;;;;;;5035735;28;20043;-68
2021/07/17 02:15:49;;;;;;;20.80;14.55;;;17.20;99.90;;;;;;5058826;28;20399;-68
2021/07/17 02:18:27;;;;;;;21.75;15.07;;;17.30;99.90;;;;;;5045113;28;20033;-68
2021/07/17 02:20:54;;;;;;;21.98;15.38;;;17.20;99.90;;;;;;5055212;28;20128;-68
2021/07/17 02:23:22;;;;;;;18.05;14.20;;;17.30;99.90;;;;;;5048542;28;20034;-68
2021/07/17 02:25:51;;;;;;;20.98;13.98;;;17.20;99.90;;;;;;5060996;28;20075;-68
2021/07/17 02:28:20;;;;;;;17.73;13.23;;;17.30;99.90;;;;;;5060164;28;20496;-67
2021/07/17 02:30:49;;;;;;;20.30;14.48;;;17.30;99.90;;;;;;5058692;28;20064;-67
2021/07/17 02:33:17;;;;;;;19.85;14.50;;;17.40;99.90;;;;;;5044692;28;20033;-68
2021/07/17 02:35:45;;;;;;;21.75;14.80;;;17.40;99.90;;;;;;5047364;28;20037;-67
2021/07/17 02:38:13;;;;;;;27.42;15.02;;;17.50;99.90;;;;;;5059014;28;20576;-67
2021/07/17 02:40:43;;;;;;;21.35;14.18;;;17.60;99.90;;;;;;5057113;28;20047;-68
2021/07/17 02:43:13;;;;;;;20.33;14.73;;;17.70;99.90;;;;;;5048621;28;20044;-68
2021/07/17 02:45:40;;;;;;;18.63;14.25;;;17.80;99.90;;;;;;5048142;28;20524;-68
2021/07/17 02:48:08;;;;;;;21.23;14.65;;;17.80;99.90;;;;;;5056909;28;20032;-67
2021/07/17 02:50:36;;;;;;;23.48;15.02;;;17.80;99.90;;;;;;5050408;28;20037;-67
2021/07/17 02:53:03;;;;;;;24.65;16.02;;;17.80;99.90;;;;;;5038290;28;20038;-67
2021/07/17 02:55:31;;;;;;;24.50;15.05;;;17.90;99.90;;;;;;5048476;28;20586;-67
2021/07/17 02:57:58;;;;;;;20.42;15.85;;;17.80;99.90;;;;;;5035109;28;20057;-67
2021/07/17 03:00:28;;;;;;;24.08;16.58;;;17.80;99.90;;;;;;5034122;28;20136;-67
2021/07/17 03:02:55;;;;;;;23.95;15.75;;;17.90;99.90;;;;;;5043395;28;20083;-67
2021/07/17 03:05:23;;;;;;;22.15;15.55;;;17.90;99.90;;;;;;5056996;28;20052;-67
2021/07/17 03:07:50;;;;;;;22.38;15.52;;;17.90;99.90;;;;;;5039391;28;20572;-68
2021/07/17 03:10:17;;;;;;;26.77;17.27;;;17.90;99.90;;;;;;5056495;28;20051;-68
2021/07/17 03:12:45;;;;;;;24.33;16.83;;;17.90;99.90;;;;;;5045074;28;20049;-68
2021/07/17 03:15:12;;;;;;;29.05;18.45;;;17.90;99.90;;;;;;5030802;28;20503;-68
2021/07/17 03:17:39;;;;;;;26.40;17.58;;;17.90;99.90;;;;;;5055148;28;20045;-68
2021/07/17 03:20:10;;;;;;;27.65;18.42;;;17.90;99.90;;;;;;5053809;28;20506;-67
2021/07/17 03:22:37;;;;;;;24.23;18.10;;;17.90;99.90;;;;;;5043197;28;20127;-68
2021/07/17 03:25:05;;;;;;;25.00;17.23;;;17.90;99.90;;;;;;5058047;28;20071;-69
2021/07/17 03:27:33;;;;;;;26.33;17.38;;;17.90;99.90;;;;;;5053496;28;20042;-69
2021/07/17 03:30:01;;;;;;;26.80;17.27;;;18.00;99.90;;;;;;5043767;28;20041;-68
2021/07/17 03:32:29;;;;;;;30.00;16.50;;;18.00;99.90;;;;;;5053674;28;20056;-68
2021/07/17 03:34:57;;;;;;;27.20;17.42;;;18.00;99.90;;;;;;5050313;28;20044;-68
2021/07/17 03:37:25;;;;;;;28.75;18.95;;;18.10;99.90;;;;;;5055035;28;20088;-68
2021/07/17 03:39:52;;;;;;;23.90;17.00;;;18.10;99.90;;;;;;5065054;28;20044;-68
2021/07/17 03:42:20;;;;;;;28.27;18.10;;;18.10;99.90;;;;;;5047276;28;20125;-69
2021/07/17 03:44:47;;;;;;;27.60;18.67;;;18.10;99.90;;;;;;5055898;28;20036;-69
2021/07/17 03:47:15;;;;;;;28.23;19.08;;;18.10;99.90;;;;;;5061754;28;20065;-68
2021/07/17 03:49:42;;;;;;;28.08;18.15;;;18.10;99.90;;;;;;5030827;28;20048;-69
2021/07/17 03:52:09;;;;;;;27.90;17.83;;;18.20;99.90;;;;;;5062271;28;20078;-68
2021/07/17 03:54:37;;;;;;;31.45;19.40;;;18.20;99.90;;;;;;5060447;28;20131;-68
2021/07/17 03:57:05;;;;;;;25.58;17.88;;;18.30;99.90;;;;;;5037661;28;20040;-68
2021/07/17 03:59:32;;;;;;;23.35;17.00;;;18.30;99.90;;;;;;5064830;28;20131;-68
2021/07/17 04:01:59;;;;;;;26.50;17.27;;;18.30;99.90;;;;;;5064874;28;20131;-68
2021/07/17 04:04:28;;;;;;;28.05;16.73;;;18.30;99.90;;;;;;5066517;28;20059;-68
2021/07/17 04:06:55;;;;;;;23.33;17.02;;;18.40;99.90;;;;;;5063699;28;20083;-69
2021/07/17 04:09:22;;;;;;;28.42;17.83;;;18.40;99.90;;;;;;5042707;28;20125;-68
2021/07/17 04:11:50;;;;;;;29.73;18.58;;;18.50;99.90;;;;;;5031970;28;20049;-68
2021/07/17 04:14:17;;;;;;;31.25;18.52;;;18.40;99.90;;;;;;5048926;28;20094;-69
2021/07/17 04:16:46;;;;;;;26.40;18.85;;;18.50;99.90;;;;;;5052265;28;20080;-69
2021/07/17 04:19:14;;;;;;;23.80;17.77;;;18.50;99.90;;;;;;5045912;28;20503;-69
2021/07/17 04:21:42;;;;;;;32.55;19.15;;;18.50;99.90;;;;;;5044338;28;20043;-68
2021/07/17 04:24:10;;;;;;;28.20;18.35;;;18.50;99.90;;;;;;5055594;28;20051;-68
2021/07/17 04:26:37;;;;;;;31.10;18.70;;;18.50;99.90;;;;;;5050091;28;20563;-68
2021/07/17 04:29:05;;;;;;;26.02;17.83;;;18.40;99.90;;;;;;5061370;28;20041;-68
2021/07/17 04:31:33;;;;;;;34.08;19.70;;;18.40;99.90;;;;;;5068058;28;20049;-68
2021/07/17 04:34:01;;;;;;;30.80;19.52;;;18.40;99.90;;;;;;5064617;28;20068;-68
2021/07/17 04:36:31;;;;;;;31.95;19.80;;;18.40;99.90;;;;;;5056103;28;20119;-68
2021/07/17 04:38:59;;;;;;;33.83;19.73;;;18.40;99.90;;;;;;5043210;28;20067;-68
2021/07/17 04:41:26;;;;;;;29.42;19.35;;;18.40;99.90;;;;;;5052331;28;20562;-68
2021/07/17 04:43:53;;;;;;;33.35;19.58;;;18.40;99.90;;;;;;5051556;28;20150;-68
2021/07/17 04:46:21;;;;;;;28.08;19.05;;;18.40;99.90;;;;;;5052053;28;20112;-68
2021/07/17 04:48:49;;;;;;;31.98;18.35;;;18.50;99.90;;;;;;5034185;28;20488;-68
2021/07/17 04:51:16;;;;;;;30.65;18.42;;;18.50;99.90;;;;;;5047625;28;20678;-68
2021/07/17 04:53:45;;;;;;;32.65;18.83;;;18.50;99.90;;;;;;5058878;28;20526;-69
2021/07/17 04:56:12;;;;;;;33.90;18.95;;;18.50;99.90;;;;;;5040086;28;20045;-68
2021/07/17 04:58:39;;;;;;;32.88;19.58;;;18.50;99.90;;;;;;5040288;28;20037;-68
2021/07/17 05:01:06;;;;;;;30.88;19.27;;;18.50;99.90;;;;;;5018744;28;20052;-68
2021/07/17 05:03:35;;;;;;;32.42;20.63;;;18.50;99.90;;;;;;5049728;28;20044;-69
2021/07/17 05:06:03;;;;;;;27.38;19.33;;;18.50;99.90;;;;;;5051071;28;20092;-68
2021/07/17 05:08:31;;;;;;;31.25;18.45;;;18.50;99.90;;;;;;5041024;28;20399;-68
2021/07/17 05:11:00;;;;;;;29.85;19.40;;;18.50;99.90;;;;;;5051480;28;20045;-69
2021/07/17 05:13:27;;;;;;;35.95;18.88;;;18.50;99.90;;;;;;5036517;28;20140;-69
2021/07/17 05:15:54;;;;;;;35.05;20.30;;;18.50;99.90;;;;;;5051486;28;20059;-68
2021/07/17 05:18:22;;;;;;;32.20;19.45;;;18.50;99.90;;;;;;5065750;28;20507;-69
2021/07/17 05:20:49;;;;;;;27.67;18.00;;;18.50;99.90;;;;;;5053751;28;20120;-69
2021/07/17 05:23:16;;;;;;;27.48;18.42;;;18.50;99.90;;;;;;5052406;28;20029;-68
2021/07/17 05:25:44;;;;;;;38.40;20.27;;;18.40;99.90;;;;;;5054100;28;20080;-68
2021/07/17 05:28:12;;;;;;;38.28;19.95;;;18.40;99.90;;;;;;5042272;28;20064;-68
2021/07/17 05:30:40;;;;;;;33.40;18.17;;;18.40;99.90;;;;;;5048682;28;20140;-68
2021/07/17 05:33:07;;;;;;;37.45;19.23;;;18.40;99.90;;;;;;5058875;28;20044;-68
2021/07/17 05:35:34;;;;;;;35.85;18.95;;;18.50;99.90;;;;;;5050205;28;20041;-69
2021/07/17 05:38:02;;;;;;;31.95;18.52;;;18.40;99.90;;;;;;5057516;28;20135;-69
2021/07/17 05:40:29;;;;;;;33.03;19.23;;;18.50;99.90;;;;;;5062937;28;20041;-69
2021/07/17 05:42:56;;;;;;;32.50;19.05;;;18.50;99.90;;;;;;5052715;28;20043;-70
2021/07/17 05:45:24;;;;;;;37.30;20.20;;;18.50;99.90;;;;;;5053060;28;20120;-70
2021/07/17 05:47:51;;;;;;;32.30;19.23;;;18.60;99.90;;;;;;5058060;28;20076;-68
2021/07/17 05:50:19;;;;;;;33.65;20.08;;;18.50;99.90;;;;;;5054652;28;20044;-69
2021/07/17 05:52:47;;;;;;;31.40;19.17;;;18.60;99.90;;;;;;5066801;28;20048;-69
2021/07/17 05:55:15;;;;;;;31.77;19.05;;;18.60;99.90;;;;;;5069226;28;20089;-68
2021/07/17 05:57:42;;;;;;;34.65;19.52;;;18.60;99.90;;;;;;5054159;28;20041;-68
2021/07/17 06:00:10;;;;;;;32.80;19.45;;;18.60;99.90;;;;;;5060050;28;20050;-67
2021/07/17 06:02:41;;;;;;;33.90;19.23;;;18.60;99.90;;;;;;5054263;28;20059;-68
2021/07/17 06:05:09;;;;;;;31.60;18.40;;;18.50;99.90;;;;;;5027118;28;20041;-68
2021/07/17 06:07:36;;;;;;;33.83;19.15;;;18.60;99.90;;;;;;5066229;28;20046;-68
2021/07/17 06:10:05;;;;;;;37.13;20.70;;;18.50;99.90;;;;;;5055527;28;20075;-68
2021/07/17 06:12:33;;;;;;;30.95;19.30;;;18.60;99.90;;;;;;5049607;28;20052;-68
2021/07/17 06:15:00;;;;;;;33.45;19.52;;;18.50;99.90;;;;;;5030507;28;20269;-68
2021/07/17 06:17:28;;;;;;;32.50;18.60;;;18.50;99.90;;;;;;5055270;28;20110;-68
2021/07/17 06:19:55;;;;;;;30.10;19.20;;;18.50;99.90;;;;;;5070939;28;20487;-69
2021/07/17 06:22:22;;;;;;;39.28;22.00;;;18.60;99.90;;;;;;5067053;28;20045;-69
2021/07/17 06:24:50;;;;;;;43.65;21.15;;;18.50;99.90;;;;;;5051382;28;20117;-68
2021/07/17 06:27:17;;;;;;;30.75;19.42;;;18.60;99.90;;;;;;5051456;28;20037;-69
2021/07/17 06:29:45;;;;;;;32.90;19.58;;;18.60;99.90;;;;;;5067775;28;20051;-68
2021/07/17 06:32:12;;;;;;;34.65;20.73;;;18.60;99.90;;;;;;5071162;28;20178;-68
2021/07/17 06:34:39;;;;;;;32.67;21.02;;;18.70;99.90;;;;;;5054876;28;20487;-70
2021/07/17 06:37:07;;;;;;;33.97;20.55;;;18.60;99.90;;;;;;5049465;28;20063;-70
2021/07/17 06:39:34;;;;;;;33.55;19.15;;;18.60;99.90;;;;;;5063196;28;20036;-69
2021/07/17 06:42:01;;;;;;;31.63;19.45;;;18.60;99.90;;;;;;5063983;28;20522;-70
2021/07/17 06:44:29;;;;;;;27.77;16.98;;;18.70;99.90;;;;;;5063285;28;20431;-69
2021/07/17 06:46:57;;;;;;;27.83;15.82;;;18.80;99.90;;;;;;5064869;28;20044;-69
2021/07/17 06:49:24;;;;;;;23.08;15.45;;;18.70;99.90;;;;;;5050454;28;20451;-68
2021/07/17 06:51:52;;;;;;;19.50;14.63;;;18.70;99.90;;;;;;5058563;28;20036;-68
2021/07/17 06:54:20;;;;;;;19.83;14.40;;;18.70;99.90;;;;;;5066718;28;20064;-69
2021/07/17 06:56:48;;;;;;;22.13;15.13;;;18.70;99.90;;;;;;5061743;28;20047;-69
2021/07/17 06:59:15;;;;;;;18.85;14.40;;;18.70;99.90;;;;;;5053954;28;20375;-69
2021/07/17 07:01:42;;;;;;;19.92;15.68;;;18.60;99.90;;;;;;5044308;28;20126;-69
2021/07/17 07:04:10;;;;;;;23.05;16.38;;;18.70;99.90;;;;;;5051602;28;20047;-68
2021/07/17 07:06:38;;;;;;;23.67;14.85;;;18.60;99.90;;;;;;5060491;28;20041;-69
2021/07/17 07:09:05;;;;;;;23.50;16.33;;;18.70;99.90;;;;;;5065815;28;20064;-68
2021/07/17 07:11:33;;;;;;;24.15;17.17;;;18.60;99.90;;;;;;5068372;28;20499;-69
2021/07/17 07:14:00;;;;;;;23.15;17.02;;;18.70;99.90;;;;;;5049320;28;20131;-69
2021/07/17 07:16:28;;;;;;;25.70;17.60;;;18.60;99.90;;;;;;5022801;28;20415;-69
2021/07/17 07:18:55;;;;;;;28.88;16.90;;;18.70;99.90;;;;;;5052888;28;20586;-69
2021/07/17 07:21:23;;;;;;;26.33;16.38;;;18.70;99.90;;;;;;5034292;28;20519;-69
2021/07/17 07:23:51;;;;;;;27.00;16.75;;;18.80;99.90;;;;;;5053396;28;20095;-69
2021/07/17 07:26:18;;;;;;;25.42;16.90;;;18.80;99.90;;;;;;5052822;28;20037;-69
2021/07/17 07:28:45;;;;;;;28.60;17.98;;;18.90;99.90;;;;;;5036783;28;20049;-68
2021/07/17 07:31:13;;;;;;;28.05;18.85;;;18.90;99.90;;;;;;5047837;28;20041;-69
2021/07/17 07:33:40;;;;;;;26.15;19.02;;;18.80;99.90;;;;;;5061838;28;20055;-69
2021/07/17 07:36:07;;;;;;;27.85;18.88;;;18.90;99.90;;;;;;5049155;28;20135;-69
2021/07/17 07:38:35;;;;;;;30.73;19.30;;;18.90;99.90;;;;;;5057032;28;20064;-69
2021/07/17 07:41:02;;;;;;;29.80;19.48;;;19.00;99.90;;;;;;5045523;28;20535;-69
2021/07/17 07:43:30;;;;;;;35.88;20.00;;;19.10;99.90;;;;;;5052553;28;20123;-69
2021/07/17 07:45:57;;;;;;;33.83;19.33;;;19.10;99.90;;;;;;5052207;28;20098;-69
2021/07/17 07:48:25;;;;;;;32.47;18.85;;;19.40;99.90;;;;;;5059535;28;20099;-70
2021/07/17 07:50:52;;;;;;;28.38;17.98;;;19.40;99.90;;;;;;5034612;28;20040;-70
2021/07/17 07:53:19;;;;;;;30.60;18.52;;;19.50;99.90;;;;;;5051258;28;20132;-70
2021/07/17 07:55:47;;;;;;;32.17;19.08;;;19.60;99.90;;;;;;5050250;28;20847;-69
2021/07/17 07:58:14;;;;;;;32.25;18.77;;;19.60;99.90;;;;;;5047639;28;20530;-70
2021/07/17 08:00:41;;;;;;;32.05;18.45;;;19.70;99.90;;;;;;5048759;28;20192;-68
2021/07/17 08:03:12;;;;;;;33.50;19.02;;;19.60;99.90;;;;;;5049699;28;20071;-70
2021/07/17 08:05:39;;;;;;;27.08;18.50;;;19.70;99.90;;;;;;5052065;28;20091;-70
2021/07/17 08:08:06;;;;;;;33.00;19.88;;;19.60;99.90;;;;;;5032750;28;20041;-69
2021/07/17 08:10:34;;;;;;;31.20;18.73;;;19.60;99.90;;;;;;5051972;28;20510;-70
2021/07/17 08:13:01;;;;;;;27.90;18.63;;;19.60;99.90;;;;;;5052457;28;20048;-70
2021/07/17 08:15:29;;;;;;;31.63;18.23;;;19.60;99.90;;;;;;5054021;28;20121;-70
2021/07/17 08:17:57;;;;;;;28.60;18.05;;;19.60;99.90;;;;;;5064660;28;20503;-69
2021/07/17 08:20:25;;;;;;;33.42;18.77;;;19.80;99.90;;;;;;5062757;28;20537;-68
2021/07/17 08:22:52;;;;;;;28.92;18.08;;;19.80;99.90;;;;;;5055266;28;20147;-69
2021/07/17 08:25:19;;;;;;;27.40;17.77;;;19.90;99.90;;;;;;5064715;28;20041;-69
2021/07/17 08:27:47;;;;;;;36.97;18.15;;;19.90;99.90;;;;;;5042959;28;20048;-68
2021/07/17 08:30:15;;;;;;;28.55;17.92;;;19.90;99.90;;;;;;5045256;28;20525;-69
2021/07/17 08:32:54;;;;;;;32.65;17.67;;;20.00;99.90;;;;;;5057916;28;20044;-69
2021/07/17 08:35:22;;;;;;;31.60;17.35;;;20.20;99.90;;;;;;5047383;28;20128;-70
2021/07/17 08:37:51;;;;;;;26.30;16.48;;;20.40;99.90;;;;;;5049621;28;20143;-70
2021/07/17 08:40:20;;;;;;;27.45;17.00;;;20.50;99.90;;;;;;5043209;28;20119;-69
2021/07/17 08:42:50;;;;;;;33.17;17.65;;;20.40;99.90;;;;;;5057827;28;20052;-69
2021/07/17 08:45:20;;;;;;;28.13;17.60;;;20.50;99.90;;;;;;5064257;28;20372;-69
2021/07/17 08:47:49;;;;;;;26.88;16.73;;;20.50;99.90;;;;;;5025241;28;20038;-69
2021/07/17 08:50:22;;;;;;;27.55;17.13;;;20.60;99.90;;;;;;5034214;28;20052;-69
2021/07/17 08:52:58;;;;;;;28.48;16.38;;;20.70;99.90;;;;;;5049621;28;20549;-69
2021/07/17 08:55:29;;;;;;;28.15;16.90;;;20.70;99.90;;;;;;5045835;28;20384;-70
2021/07/17 08:57:57;;;;;;;25.98;16.05;;;20.60;99.90;;;;;;5041756;28;20977;-69
2021/07/17 09:00:37;;;;;;;23.75;14.82;;;20.60;99.90;;;;;;5048869;28;20040;-70
2021/07/17 09:03:13;;;;;;;22.98;16.10;;;20.70;99.90;;;;;;5047457;28;20033;-71
2021/07/17 09:05:45;;;;;;;25.55;15.55;;;20.80;99.90;;;;;;5051615;28;20044;-69
2021/07/17 09:08:14;;;;;;;29.55;15.73;;;20.90;99.90;;;;;;5038290;28;20045;-69
2021/07/17 09:10:50;;;;;;;23.02;15.18;;;21.00;99.90;;;;;;5054343;28;20074;-68
2021/07/17 09:13:28;;;;;;;29.30;14.68;;;21.20;99.90;;;;;;5052443;28;20075;-68
2021/07/17 09:16:00;;;;;;;23.60;14.85;;;21.40;99.90;;;;;;5043611;28;20043;-68
2021/07/17 09:18:44;;;;;;;22.17;14.60;;;21.60;99.90;;;;;;5047287;28;20115;-70
2021/07/17 09:21:24;;;;;;;18.65;12.68;;;21.80;99.90;;;;;;5056847;28;20047;-69
2021/07/17 09:24:05;;;;;;;19.60;13.30;;;22.20;99.90;;;;;;5035690;28;20042;-70
2021/07/17 09:26:35;;;;;;;19.52;12.05;;;22.50;99.90;;;;;;5044143;28;20494;-69
2021/07/17 09:29:02;;;;;;;19.73;12.20;;;23.00;99.90;;;;;;5056762;28;20143;-69
2021/07/17 09:31:33;;;;;;;15.48;10.60;;;23.30;99.90;;;;;;5059493;28;20106;-69
2021/07/17 09:34:09;;;;;;;16.60;10.70;;;23.40;99.90;;;;;;5059559;28;20044;-70
2021/07/17 09:37:00;;;;;;;15.80;11.07;;;23.80;99.90;;;;;;5060030;28;20469;-69
2021/07/17 09:39:31;;;;;;;17.85;11.27;;;24.10;99.90;;;;;;5058834;28;20051;-69
2021/07/17 09:42:01;;;;;;;15.05;10.38;;;23.60;99.90;;;;;;5057352;28;20040;-68
2021/07/17 09:44:31;;;;;;;23.10;11.80;;;23.20;99.90;;;;;;5037879;28;20388;-69
2021/07/17 09:46:59;;;;;;;17.33;11.55;;;22.90;99.90;;;;;;5064907;28;20054;-70
2021/07/17 09:49:27;;;;;;;15.68;10.75;;;22.80;99.90;;;;;;5051255;28;20048;-68
2021/07/17 09:52:11;;;;;;;17.75;10.77;;;22.90;99.90;;;;;;5039425;28;20115;-68
2021/07/17 09:54:40;;;;;;;17.42;10.50;;;22.90;99.90;;;;;;5049141;28;20049;-68
2021/07/17 09:57:07;;;;;;;15.93;9.93;;;23.10;99.90;;;;;;5056722;28;20036;-69
2021/07/17 09:59:34;;;;;;;13.80;9.95;;;23.40;99.90;;;;;;5049097;28;20057;-69
2021/07/17 10:02:02;;;;;;;16.95;10.60;;;23.50;99.90;;;;;;5061314;28;20036;-69
2021/07/17 10:04:30;;;;;;;15.32;9.65;;;23.10;99.90;;;;;;5056529;28;20040;-68
2021/07/17 10:07:08;;;;;;;13.25;9.07;;;22.90;99.90;;;;;;5052659;28;20460;-68
2021/07/17 10:09:35;;;;;;;17.95;10.68;;;23.00;99.90;;;;;;5044335;28;20033;-68
2021/07/17 10:12:08;;;;;;;12.93;10.18;;;22.80;99.90;;;;;;5031613;28;20073;-68
2021/07/17 10:14:39;;;;;;;14.15;10.05;;;22.60;99.90;;;;;;5041252;28;20087;-69
2021/07/17 10:17:12;;;;;;;18.98;11.38;;;22.50;99.90;;;;;;5051582;28;20164;-68
2021/07/17 10:19:41;;;;;;;16.40;11.40;;;22.40;99.90;;;;;;5064567;28;20044;-68
2021/07/17 10:22:11;;;;;;;17.38;9.80;;;22.50;99.90;;;;;;5063708;28;20123;-68
2021/07/17 10:24:39;;;;;;;16.00;10.77;;;22.60;99.90;;;;;;5052237;28;20044;-68
2021/07/17 10:27:06;;;;;;;12.45;9.60;;;22.70;99.90;;;;;;5063753;28;20495;-68
2021/07/17 10:29:34;;;;;;;14.20;9.60;;;23.00;99.90;;;;;;5034233;28;20492;-68
2021/07/17 10:32:02;;;;;;;13.68;8.80;;;23.20;99.90;;;;;;5048273;28;20079;-68
2021/07/17 10:34:30;;;;;;;16.80;10.25;;;23.20;99.90;;;;;;5060922;28;20119;-68
2021/07/17 10:37:02;;;;;;;17.20;10.13;;;23.30;99.90;;;;;;5048496;28;20068;-68
2021/07/17 10:39:36;;;;;;;13.13;10.05;;;23.20;99.90;;;;;;5035655;28;20068;-68
2021/07/17 10:42:11;;;;;;;14.85;9.63;;;23.00;99.90;;;;;;5040142;28;20140;-68
2021/07/17 10:44:50;;;;;;;15.10;9.70;;;22.80;99.90;;;;;;5051381;28;20313;-68
2021/07/17 10:47:19;;;;;;;13.15;9.43;;;22.60;99.90;;;;;;5042963;28;20503;-68
2021/07/17 10:49:54;;;;;;;12.85;8.68;;;22.40;99.90;;;;;;5054601;28;20033;-68
2021/07/17 10:52:35;;;;;;;12.48;8.45;;;22.50;99.90;;;;;;5041886;28;20369;-68
2021/07/17 10:55:32;;;;;;;11.27;8.23;;;22.50;99.90;;;;;;5062722;28;20095;-69
2021/07/17 10:58:11;;;;;;;15.65;9.60;;;22.50;99.90;;;;;;5058162;28;20132;-68
2021/07/17 11:00:41;;;;;;;15.70;9.80;;;22.40;99.90;;;;;;5064287;28;20045;-68
2021/07/17 11:03:31;;;;;;;14.30;9.55;;;22.20;99.90;;;;;;5053381;28;20045;-68
2021/07/17 11:06:28;;;;;;;14.77;9.90;;;22.10;99.90;;;;;;5045743;28;20067;-69
2021/07/17 11:08:57;;;;;;;13.90;9.18;;;22.10;99.90;;;;;;5037341;28;20043;-69
2021/07/17 11:11:27;;;;;;;14.73;9.73;;;22.10;99.90;;;;;;5041365;28;20056;-69
2021/07/17 11:13:56;;;;;;;19.50;10.05;;;21.90;99.90;;;;;;5046364;28;20051;-68
2021/07/17 11:16:43;;;;;;;13.82;9.75;;;22.00;99.90;;;;;;5030042;28;20049;-69
2021/07/17 11:19:27;;;;;;;15.52;10.48;;;22.10;99.90;;;;;;5051708;28;20036;-70
2021/07/17 11:22:07;;;;;;;13.20;9.35;;;22.20;99.90;;;;;;5048650;28;20049;-71
2021/07/17 11:24:35;;;;;;;15.10;9.85;;;22.10;99.90;;;;;;5048237;28;20048;-69
2021/07/17 11:27:12;;;;;;;14.82;9.77;;;22.20;99.90;;;;;;5059105;28;20076;-70
2021/07/17 11:29:47;;;;;;;16.60;9.75;;;22.20;99.90;;;;;;5038205;28;20044;-70
2021/07/17 11:32:16;;;;;;;21.70;12.38;;;22.30;99.90;;;;;;5030192;28;20414;-70
2021/07/17 11:34:49;;;;;;;16.63;10.45;;;22.20;99.90;;;;;;5050928;28;20102;-70
2021/07/17 11:37:23;;;;;;;12.75;9.18;;;22.10;99.90;;;;;;5049221;28;20037;-69
2021/07/17 11:39:54;;;;;;;16.45;11.38;;;22.10;99.90;;;;;;5050072;28;20064;-69
2021/07/17 11:42:22;;;;;;;14.98;11.07;;;22.00;99.90;;;;;;5059447;28;20044;-69
2021/07/17 11:44:53;;;;;;;17.73;11.00;;;21.90;99.90;;;;;;5044311;28;20466;-69
2021/07/17 11:47:31;;;;;;;17.38;11.05;;;21.90;99.90;;;;;;5058571;28;20041;-69
2021/07/17 11:50:00;;;;;;;16.45;10.23;;;21.70;99.90;;;;;;5055168;28;20068;-69
2021/07/17 11:52:30;;;;;;;17.13;10.27;;;21.60;99.90;;;;;;5031784;28;20041;-70
2021/07/17 11:55:11;;;;;;;17.65;10.90;;;21.60;99.90;;;;;;5054653;28;20135;-70
2021/07/17 11:57:43;;;;;;;15.05;10.60;;;21.60;99.90;;;;;;5066710;28;20511;-70
2021/07/17 12:00:20;;;;;;;16.35;10.95;;;21.60;99.90;;;;;;5062765;28;20535;-70
2021/07/17 12:02:57;;;;;;;14.65;10.20;;;21.70;99.90;;;;;;5041512;28;20045;-69
2021/07/17 12:05:26;;;;;;;13.63;11.00;;;21.50;99.90;;;;;;5052035;28;20461;-69
2021/07/17 12:07:54;;;;;;;14.95;11.48;;;21.50;99.90;;;;;;5048988;28;20299;-68
2021/07/17 12:10:24;;;;;;;16.33;10.45;;;21.40;99.90;;;;;;5043481;28;20344;-68
2021/07/17 12:12:54;;;;;;;16.63;11.25;;;21.30;99.90;;;;;;5056618;28;20029;-68
2021/07/17 12:15:25;;;;;;;16.83;11.05;;;21.20;99.90;;;;;;5047003;28;20136;-69
2021/07/17 12:17:59;;;;;;;15.60;11.02;;;21.20;99.90;;;;;;5050819;28;20052;-70
2021/07/17 12:20:31;;;;;;;16.40;11.45;;;21.30;99.90;;;;;;5032634;28;20051;-70
2021/07/17 12:23:12;;;;;;;18.08;11.55;;;21.40;99.90;;;;;;5033970;28;20049;-70
2021/07/17 12:25:47;;;;;;;19.75;11.27;;;21.50;99.90;;;;;;5059832;28;20063;-70
2021/07/17 12:28:23;;;;;;;17.30;11.07;;;21.60;99.90;;;;;;5045517;28;20041;-70
2021/07/17 12:30:56;;;;;;;14.98;9.88;;;21.80;99.90;;;;;;5051231;28;20064;-69
2021/07/17 12:33:37;;;;;;;13.65;10.63;;;21.80;99.90;;;;;;5047692;28;20120;-70
2021/07/17 12:36:32;;;;;;;14.50;10.18;;;21.90;99.90;;;;;;5050557;28;20090;-70
2021/07/17 12:39:00;;;;;;;16.08;10.40;;;22.10;99.90;;;;;;5035411;28;20071;-70
2021/07/17 12:41:29;;;;;;;13.43;9.88;;;22.30;99.90;;;;;;5055472;28;20504;-70